sensor_id;sensor_type;location;lat;lon;timestamp;P1;durP1;ratioP1;P2;durP2;ratioP2
9838;SDS011;4958;48.150;11.506;2023-03-01T00:23:10;16.93;;;12.53;;
9838;SDS011;4958;48.150;11.506;2023-03-01T00:26:06;13.97;;;12.10;;
9838;SDS011;4958;48.150;11.506;2023-03-01T00:32:44;15.40;;;12.27;;
9838;SDS011;4958;48.150;11.506;2023-03-01T00:44:47;16.30;;;12.97;;
9838;SDS011;4958;48.150;11.506;2023-03-01T00:48:02;15.07;;;12.30;;
9838;SDS011;4958;48.150;11.506;2023-03-01T00:57:52;14.90;;;12.43;;
9838;SDS011;4958;48.150;11.506;2023-03-01T01:32:14;15.07;;;11.77;;
9838;SDS011;4958;48.150;11.506;2023-03-01T02:02:03;14.43;;;11.87;;
9838;SDS011;4958;48.150;11.506;2023-03-01T02:09:57;15.47;;;12.37;;
9838;SDS011;4958;48.150;11.506;2023-03-01T02:11:49;15.77;;;12.73;;
9838;SDS011;4958;48.150;11.506;2023-03-01T02:37:12;16.93;;;12.63;;
9838;SDS011;4958;48.150;11.506;2023-03-01T02:43:18;16.00;;;11.93;;
9838;SDS011;4958;48.150;11.506;2023-03-01T02:51:05;15.47;;;12.37;;
9838;SDS011;4958;48.150;11.506;2023-03-01T03:07:09;16.90;;;12.67;;
9838;SDS011;4958;48.150;11.506;2023-03-01T03:14:00;14.67;;;11.83;;
9838;SDS011;4958;48.150;11.506;2023-03-01T03:17:25;15.73;;;11.90;;
9838;SDS011;4958;48.150;11.506;2023-03-01T03:23:58;16.63;;;12.90;;
9838;SDS011;4958;48.150;11.506;2023-03-01T03:29:57;17.17;;;12.87;;
9838;SDS011;4958;48.150;11.506;2023-03-01T03:58:17;16.97;;;13.30;;
9838;SDS011;4958;48.150;11.506;2023-03-01T04:04:48;17.63;;;12.87;;
9838;SDS011;4958;48.150;11.506;2023-03-01T04:26:53;15.23;;;12.50;;
9838;SDS011;4958;48.150;11.506;2023-03-01T04:39:18;17.83;;;13.37;;
9838;SDS011;4958;48.150;11.506;2023-03-01T04:45:59;17.73;;;13.13;;
9838;SDS011;4958;48.150;11.506;2023-03-01T04:48:57;16.20;;;13.43;;
9838;SDS011;4958;48.150;11.506;2023-03-01T05:03:50;16.20;;;13.40;;
9838;SDS011;4958;48.150;11.506;2023-03-01T05:13:49;14.80;;;12.07;;
9838;SDS011;4958;48.150;11.506;2023-03-01T05:17:43;17.20;;;13.60;;
9838;SDS011;4958;48.150;11.506;2023-03-01T05:36:32;16.07;;;12.33;;
9838;SDS011;4958;48.150;11.506;2023-03-01T05:51:10;15.30;;;12.93;;
9838;SDS011;4958;48.150;11.506;2023-03-01T05:57:02;15.77;;;13.10;;
9838;SDS011;4958;48.150;11.506;2023-03-01T05:59:58;19.60;;;12.93;;
9838;SDS011;4958;48.150;11.506;2023-03-01T06:56:07;18.47;;;13.50;;
9838;SDS011;4958;48.150;11.506;2023-03-01T06:58:34;20.30;;;13.10;;
9838;SDS011;4958;48.150;11.506;2023-03-01T07:01:01;28.00;;;19.03;;
9838;SDS011;4958;48.150;11.506;2023-03-01T07:03:35;26.80;;;19.70;;
9838;SDS011;4958;48.150;11.506;2023-03-01T07:06:02;18.10;;;12.40;;
9838;SDS011;4958;48.150;11.506;2023-03-01T07:08:34;16.77;;;13.60;;
9838;SDS011;4958;48.150;11.506;2023-03-01T07:11:00;20.93;;;12.87;;
9838;SDS011;4958;48.150;11.506;2023-03-01T07:13:32;18.83;;;14.07;;
9838;SDS011;4958;48.150;11.506;2023-03-01T07:16:01;18.33;;;13.53;;
9838;SDS011;4958;48.150;11.506;2023-03-01T07:18:32;17.37;;;13.90;;
9838;SDS011;4958;48.150;11.506;2023-03-01T07:21:03;18.50;;;13.90;;
9838;SDS011;4958;48.150;11.506;2023-03-01T07:23:30;19.17;;;13.90;;
9838;SDS011;4958;48.150;11.506;2023-03-01T07:25:56;17.17;;;14.13;;
9838;SDS011;4958;48.150;11.506;2023-03-01T07:28:23;16.97;;;14.07;;
9838;SDS011;4958;48.150;11.506;2023-03-01T07:34:17;17.70;;;13.87;;
9838;SDS011;4958;48.150;11.506;2023-03-01T07:36:47;16.53;;;13.47;;
9838;SDS011;4958;48.150;11.506;2023-03-01T07:39:13;16.37;;;13.80;;
9838;SDS011;4958;48.150;11.506;2023-03-01T07:41:40;18.00;;;14.20;;
9838;SDS011;4958;48.150;11.506;2023-03-01T07:44:12;18.47;;;14.63;;
9838;SDS011;4958;48.150;11.506;2023-03-01T07:46:42;17.60;;;14.03;;
9838;SDS011;4958;48.150;11.506;2023-03-01T07:49:08;20.50;;;14.33;;
9838;SDS011;4958;48.150;11.506;2023-03-01T07:51:36;44.33;;;32.07;;
9838;SDS011;4958;48.150;11.506;2023-03-01T07:54:03;35.30;;;25.80;;
9838;SDS011;4958;48.150;11.506;2023-03-01T07:56:29;19.63;;;14.27;;
9838;SDS011;4958;48.150;11.506;2023-03-01T07:58:56;17.90;;;13.80;;
9838;SDS011;4958;48.150;11.506;2023-03-01T08:01:24;17.40;;;13.33;;
9838;SDS011;4958;48.150;11.506;2023-03-01T08:03:50;18.87;;;14.67;;
9838;SDS011;4958;48.150;11.506;2023-03-01T08:06:18;20.03;;;14.03;;
9838;SDS011;4958;48.150;11.506;2023-03-01T08:08:46;20.27;;;14.63;;
9838;SDS011;4958;48.150;11.506;2023-03-01T08:11:13;20.00;;;14.90;;
9838;SDS011;4958;48.150;11.506;2023-03-01T08:13:41;24.60;;;14.37;;
9838;SDS011;4958;48.150;11.506;2023-03-01T08:16:09;20.00;;;13.80;;
9838;SDS011;4958;48.150;11.506;2023-03-01T08:18:37;18.13;;;14.87;;
9838;SDS011;4958;48.150;11.506;2023-03-01T08:21:05;20.77;;;15.00;;
9838;SDS011;4958;48.150;11.506;2023-03-01T08:23:33;18.20;;;14.93;;
9838;SDS011;4958;48.150;11.506;2023-03-01T08:26:05;19.30;;;15.00;;
9838;SDS011;4958;48.150;11.506;2023-03-01T08:28:34;23.00;;;13.60;;
9838;SDS011;4958;48.150;11.506;2023-03-01T08:31:00;19.63;;;14.50;;
9838;SDS011;4958;48.150;11.506;2023-03-01T08:33:27;17.57;;;14.10;;
9838;SDS011;4958;48.150;11.506;2023-03-01T08:36:01;22.80;;;14.57;;
9838;SDS011;4958;48.150;11.506;2023-03-01T08:38:29;23.50;;;14.17;;
9838;SDS011;4958;48.150;11.506;2023-03-01T08:40:55;19.43;;;14.83;;
9838;SDS011;4958;48.150;11.506;2023-03-01T08:43:27;20.10;;;15.07;;
9838;SDS011;4958;48.150;11.506;2023-03-01T08:45:53;18.60;;;14.07;;
9838;SDS011;4958;48.150;11.506;2023-03-01T08:48:20;21.00;;;16.13;;
9838;SDS011;4958;48.150;11.506;2023-03-01T08:50:46;36.80;;;25.23;;
9838;SDS011;4958;48.150;11.506;2023-03-01T08:53:13;21.87;;;15.07;;
9838;SDS011;4958;48.150;11.506;2023-03-01T08:55:39;19.27;;;14.30;;
9838;SDS011;4958;48.150;11.506;2023-03-01T08:58:05;21.70;;;14.57;;
9838;SDS011;4958;48.150;11.506;2023-03-01T09:00:33;17.57;;;13.80;;
9838;SDS011;4958;48.150;11.506;2023-03-01T09:03:00;19.33;;;14.47;;
9838;SDS011;4958;48.150;11.506;2023-03-01T09:05:26;19.63;;;15.10;;
9838;SDS011;4958;48.150;11.506;2023-03-01T09:07:53;19.83;;;14.70;;
9838;SDS011;4958;48.150;11.506;2023-03-01T09:10:19;19.90;;;14.53;;
9838;SDS011;4958;48.150;11.506;2023-03-01T09:12:46;20.00;;;14.93;;
9838;SDS011;4958;48.150;11.506;2023-03-01T09:15:12;17.03;;;13.83;;
9838;SDS011;4958;48.150;11.506;2023-03-01T09:17:42;19.73;;;15.03;;
9838;SDS011;4958;48.150;11.506;2023-03-01T09:20:09;19.73;;;15.43;;
9838;SDS011;4958;48.150;11.506;2023-03-01T09:22:36;18.57;;;14.23;;
9838;SDS011;4958;48.150;11.506;2023-03-01T09:25:03;17.87;;;14.70;;
9838;SDS011;4958;48.150;11.506;2023-03-01T09:27:30;20.47;;;15.30;;
9838;SDS011;4958;48.150;11.506;2023-03-01T09:29:56;18.73;;;14.80;;
9838;SDS011;4958;48.150;11.506;2023-03-01T09:32:23;21.03;;;15.53;;
9838;SDS011;4958;48.150;11.506;2023-03-01T09:34:50;20.10;;;15.07;;
9838;SDS011;4958;48.150;11.506;2023-03-01T09:37:35;20.83;;;14.57;;
9838;SDS011;4958;48.150;11.506;2023-03-01T09:40:11;18.77;;;14.67;;
9838;SDS011;4958;48.150;11.506;2023-03-01T09:42:45;25.50;;;19.80;;
9838;SDS011;4958;48.150;11.506;2023-03-01T09:45:18;21.60;;;15.33;;
9838;SDS011;4958;48.150;11.506;2023-03-01T09:47:51;21.53;;;15.30;;
9838;SDS011;4958;48.150;11.506;2023-03-01T09:50:21;19.93;;;14.80;;
9838;SDS011;4958;48.150;11.506;2023-03-01T09:52:50;21.07;;;15.53;;
9838;SDS011;4958;48.150;11.506;2023-03-01T09:55:29;21.10;;;15.80;;
9838;SDS011;4958;48.150;11.506;2023-03-01T09:58:00;19.70;;;14.30;;
9838;SDS011;4958;48.150;11.506;2023-03-01T10:00:36;17.60;;;13.93;;
9838;SDS011;4958;48.150;11.506;2023-03-01T10:03:14;19.07;;;14.87;;
9838;SDS011;4958;48.150;11.506;2023-03-01T10:05:52;18.93;;;14.33;;
9838;SDS011;4958;48.150;11.506;2023-03-01T10:08:29;18.70;;;14.57;;
9838;SDS011;4958;48.150;11.506;2023-03-01T10:11:01;19.40;;;14.77;;
9838;SDS011;4958;48.150;11.506;2023-03-01T10:13:31;18.33;;;14.57;;
9838;SDS011;4958;48.150;11.506;2023-03-01T10:16:05;17.87;;;14.47;;
9838;SDS011;4958;48.150;11.506;2023-03-01T10:18:37;18.87;;;13.67;;
9838;SDS011;4958;48.150;11.506;2023-03-01T10:21:11;17.57;;;14.00;;
9838;SDS011;4958;48.150;11.506;2023-03-01T10:23:41;17.40;;;13.80;;
9838;SDS011;4958;48.150;11.506;2023-03-01T10:26:21;17.47;;;14.53;;
9838;SDS011;4958;48.150;11.506;2023-03-01T10:28:58;17.63;;;14.27;;
9838;SDS011;4958;48.150;11.506;2023-03-01T10:31:32;21.00;;;14.77;;
9838;SDS011;4958;48.150;11.506;2023-03-01T10:34:06;20.13;;;14.90;;
9838;SDS011;4958;48.150;11.506;2023-03-01T10:36:37;18.33;;;14.60;;
9838;SDS011;4958;48.150;11.506;2023-03-01T10:39:11;17.40;;;15.33;;
9838;SDS011;4958;48.150;11.506;2023-03-01T10:41:44;21.60;;;16.30;;
9838;SDS011;4958;48.150;11.506;2023-03-01T10:44:34;19.43;;;14.87;;
9838;SDS011;4958;48.150;11.506;2023-03-01T10:47:09;17.57;;;14.83;;
9838;SDS011;4958;48.150;11.506;2023-03-01T10:49:45;19.37;;;14.87;;
9838;SDS011;4958;48.150;11.506;2023-03-01T10:52:20;17.97;;;14.20;;
9838;SDS011;4958;48.150;11.506;2023-03-01T10:54:51;19.90;;;15.73;;
9838;SDS011;4958;48.150;11.506;2023-03-01T10:57:30;18.83;;;15.13;;
9838;SDS011;4958;48.150;11.506;2023-03-01T11:00:10;18.13;;;14.33;;
9838;SDS011;4958;48.150;11.506;2023-03-01T11:02:42;20.07;;;16.37;;
9838;SDS011;4958;48.150;11.506;2023-03-01T11:05:15;18.13;;;14.97;;
9838;SDS011;4958;48.150;11.506;2023-03-01T11:07:48;20.00;;;15.60;;
9838;SDS011;4958;48.150;11.506;2023-03-01T11:10:17;18.73;;;16.00;;
9838;SDS011;4958;48.150;11.506;2023-03-01T11:12:45;21.53;;;17.03;;
9838;SDS011;4958;48.150;11.506;2023-03-01T11:15:19;20.73;;;15.90;;
9838;SDS011;4958;48.150;11.506;2023-03-01T11:17:47;19.83;;;15.50;;
9838;SDS011;4958;48.150;11.506;2023-03-01T11:20:17;18.67;;;15.37;;
9838;SDS011;4958;48.150;11.506;2023-03-01T11:22:52;20.43;;;16.20;;
9838;SDS011;4958;48.150;11.506;2023-03-01T11:25:21;19.10;;;16.23;;
9838;SDS011;4958;48.150;11.506;2023-03-01T11:27:51;22.40;;;16.47;;
9838;SDS011;4958;48.150;11.506;2023-03-01T11:30:21;18.50;;;15.43;;
9838;SDS011;4958;48.150;11.506;2023-03-01T11:32:52;17.43;;;15.30;;
9838;SDS011;4958;48.150;11.506;2023-03-01T11:35:27;18.20;;;15.77;;
9838;SDS011;4958;48.150;11.506;2023-03-01T11:38:02;19.13;;;15.23;;
9838;SDS011;4958;48.150;11.506;2023-03-01T11:40:41;18.03;;;15.77;;
9838;SDS011;4958;48.150;11.506;2023-03-01T11:43:14;31.93;;;25.77;;
9838;SDS011;4958;48.150;11.506;2023-03-01T11:45:53;21.40;;;18.67;;
9838;SDS011;4958;48.150;11.506;2023-03-01T11:48:50;17.93;;;15.63;;
9838;SDS011;4958;48.150;11.506;2023-03-01T11:51:32;28.33;;;21.53;;
9838;SDS011;4958;48.150;11.506;2023-03-01T11:54:17;20.23;;;17.27;;
9838;SDS011;4958;48.150;11.506;2023-03-01T11:56:52;18.37;;;15.57;;
9838;SDS011;4958;48.150;11.506;2023-03-01T11:59:28;19.00;;;15.87;;
9838;SDS011;4958;48.150;11.506;2023-03-01T12:02:41;32.23;;;24.83;;
9838;SDS011;4958;48.150;11.506;2023-03-01T12:05:36;20.17;;;17.70;;
9838;SDS011;4958;48.150;11.506;2023-03-01T12:08:17;22.47;;;18.33;;
9838;SDS011;4958;48.150;11.506;2023-03-01T12:10:49;17.57;;;15.77;;
9838;SDS011;4958;48.150;11.506;2023-03-01T12:26:44;18.57;;;15.57;;
9838;SDS011;4958;48.150;11.506;2023-03-01T12:30:35;17.77;;;15.83;;
9838;SDS011;4958;48.150;11.506;2023-03-01T12:37:23;19.10;;;15.47;;
9838;SDS011;4958;48.150;11.506;2023-03-01T12:40:22;18.63;;;15.47;;
9838;SDS011;4958;48.150;11.506;2023-03-01T12:47:07;18.63;;;15.80;;
9838;SDS011;4958;48.150;11.506;2023-03-01T12:49:45;18.27;;;15.60;;
9838;SDS011;4958;48.150;11.506;2023-03-01T12:52:18;18.07;;;15.53;;
9838;SDS011;4958;48.150;11.506;2023-03-01T12:54:50;19.33;;;15.97;;
9838;SDS011;4958;48.150;11.506;2023-03-01T12:57:21;17.33;;;15.30;;
9838;SDS011;4958;48.150;11.506;2023-03-01T13:00:05;19.07;;;16.00;;
9838;SDS011;4958;48.150;11.506;2023-03-01T13:02:45;17.80;;;15.87;;
9838;SDS011;4958;48.150;11.506;2023-03-01T13:05:24;17.63;;;15.73;;
9838;SDS011;4958;48.150;11.506;2023-03-01T13:07:59;18.07;;;16.20;;
9838;SDS011;4958;48.150;11.506;2023-03-01T13:10:34;18.03;;;15.87;;
9838;SDS011;4958;48.150;11.506;2023-03-01T13:13:13;20.40;;;15.87;;
9838;SDS011;4958;48.150;11.506;2023-03-01T13:15:47;17.87;;;15.43;;
9838;SDS011;4958;48.150;11.506;2023-03-01T13:18:32;17.73;;;15.90;;
9838;SDS011;4958;48.150;11.506;2023-03-01T13:20:59;17.43;;;15.50;;
9838;SDS011;4958;48.150;11.506;2023-03-01T13:23:29;17.97;;;15.97;;
9838;SDS011;4958;48.150;11.506;2023-03-01T13:26:02;40.37;;;30.10;;
9838;SDS011;4958;48.150;11.506;2023-03-01T13:28:37;21.07;;;17.07;;
9838;SDS011;4958;48.150;11.506;2023-03-01T13:31:08;19.17;;;17.00;;
9838;SDS011;4958;48.150;11.506;2023-03-01T13:33:43;19.57;;;15.20;;
9838;SDS011;4958;48.150;11.506;2023-03-01T13:36:11;17.43;;;15.23;;
9838;SDS011;4958;48.150;11.506;2023-03-01T13:39:28;17.87;;;15.13;;
9838;SDS011;4958;48.150;11.506;2023-03-01T13:42:00;19.30;;;15.83;;
9838;SDS011;4958;48.150;11.506;2023-03-01T13:44:29;19.80;;;16.43;;
9838;SDS011;4958;48.150;11.506;2023-03-01T13:47:01;17.70;;;15.50;;
9838;SDS011;4958;48.150;11.506;2023-03-01T13:49:41;18.47;;;14.97;;
9838;SDS011;4958;48.150;11.506;2023-03-01T13:52:21;17.63;;;15.83;;
9838;SDS011;4958;48.150;11.506;2023-03-01T13:55:00;17.00;;;15.13;;
9838;SDS011;4958;48.150;11.506;2023-03-01T13:57:30;17.13;;;15.33;;
9838;SDS011;4958;48.150;11.506;2023-03-01T14:00:00;19.20;;;15.80;;
9838;SDS011;4958;48.150;11.506;2023-03-01T14:02:27;17.60;;;15.87;;
9838;SDS011;4958;48.150;11.506;2023-03-01T14:04:57;18.27;;;15.63;;
9838;SDS011;4958;48.150;11.506;2023-03-01T14:07:25;16.90;;;15.20;;
9838;SDS011;4958;48.150;11.506;2023-03-01T14:09:54;19.70;;;16.13;;
9838;SDS011;4958;48.150;11.506;2023-03-01T14:12:25;19.03;;;15.93;;
9838;SDS011;4958;48.150;11.506;2023-03-01T14:14:59;17.60;;;15.70;;
9838;SDS011;4958;48.150;11.506;2023-03-01T14:17:34;17.53;;;15.43;;
9838;SDS011;4958;48.150;11.506;2023-03-01T14:20:10;18.93;;;15.57;;
9838;SDS011;4958;48.150;11.506;2023-03-01T14:22:42;15.97;;;14.27;;
9838;SDS011;4958;48.150;11.506;2023-03-01T14:27:57;20.00;;;17.30;;
9838;SDS011;4958;48.150;11.506;2023-03-01T14:30:27;24.13;;;20.97;;
9838;SDS011;4958;48.150;11.506;2023-03-01T14:32:59;18.50;;;15.53;;
9838;SDS011;4958;48.150;11.506;2023-03-01T14:35:27;19.57;;;15.90;;
9838;SDS011;4958;48.150;11.506;2023-03-01T14:37:56;17.17;;;15.17;;
9838;SDS011;4958;48.150;11.506;2023-03-01T14:40:24;17.90;;;14.53;;
9838;SDS011;4958;48.150;11.506;2023-03-01T14:42:53;17.93;;;15.43;;
9838;SDS011;4958;48.150;11.506;2023-03-01T14:45:21;17.10;;;15.30;;
9838;SDS011;4958;48.150;11.506;2023-03-01T14:47:49;17.83;;;14.80;;
9838;SDS011;4958;48.150;11.506;2023-03-01T14:50:22;16.77;;;14.97;;
9838;SDS011;4958;48.150;11.506;2023-03-01T14:52:53;16.43;;;14.63;;
9838;SDS011;4958;48.150;11.506;2023-03-01T14:55:31;16.67;;;14.60;;
9838;SDS011;4958;48.150;11.506;2023-03-01T14:58:02;17.97;;;14.93;;
9838;SDS011;4958;48.150;11.506;2023-03-01T15:00:31;15.97;;;14.20;;
9838;SDS011;4958;48.150;11.506;2023-03-01T15:03:03;18.83;;;14.10;;
9838;SDS011;4958;48.150;11.506;2023-03-01T15:05:39;16.60;;;13.53;;
9838;SDS011;4958;48.150;11.506;2023-03-01T15:08:11;19.70;;;14.30;;
9838;SDS011;4958;48.150;11.506;2023-03-01T15:10:55;16.17;;;13.63;;
9838;SDS011;4958;48.150;11.506;2023-03-01T15:13:24;17.13;;;14.30;;
9838;SDS011;4958;48.150;11.506;2023-03-01T15:16:00;24.97;;;19.23;;
9838;SDS011;4958;48.150;11.506;2023-03-01T15:18:28;15.20;;;13.07;;
9838;SDS011;4958;48.150;11.506;2023-03-01T15:21:02;14.07;;;12.40;;
9838;SDS011;4958;48.150;11.506;2023-03-01T15:23:32;15.80;;;13.27;;
9838;SDS011;4958;48.150;11.506;2023-03-01T15:25:58;15.40;;;13.37;;
9838;SDS011;4958;48.150;11.506;2023-03-01T15:28:26;15.90;;;13.27;;
9838;SDS011;4958;48.150;11.506;2023-03-01T15:30:56;15.03;;;13.10;;
9838;SDS011;4958;48.150;11.506;2023-03-01T15:33:29;14.80;;;12.73;;
9838;SDS011;4958;48.150;11.506;2023-03-01T15:36:00;14.60;;;12.87;;
9838;SDS011;4958;48.150;11.506;2023-03-01T15:41:57;15.33;;;12.70;;
9838;SDS011;4958;48.150;11.506;2023-03-01T15:44:25;15.77;;;13.10;;
9838;SDS011;4958;48.150;11.506;2023-03-01T15:46:53;15.33;;;13.60;;
9838;SDS011;4958;48.150;11.506;2023-03-01T15:49:29;14.43;;;12.70;;
9838;SDS011;4958;48.150;11.506;2023-03-01T15:52:02;20.83;;;15.07;;
9838;SDS011;4958;48.150;11.506;2023-03-01T15:54:30;18.83;;;14.90;;
9838;SDS011;4958;48.150;11.506;2023-03-01T15:56:56;15.60;;;13.10;;
9838;SDS011;4958;48.150;11.506;2023-03-01T15:59:23;15.30;;;12.87;;
9838;SDS011;4958;48.150;11.506;2023-03-01T16:01:49;16.00;;;12.57;;
9838;SDS011;4958;48.150;11.506;2023-03-01T16:04:17;14.13;;;12.57;;
9838;SDS011;4958;48.150;11.506;2023-03-01T16:06:48;13.53;;;12.13;;
9838;SDS011;4958;48.150;11.506;2023-03-01T16:09:20;16.87;;;12.47;;
9838;SDS011;4958;48.150;11.506;2023-03-01T16:11:48;16.50;;;12.37;;
9838;SDS011;4958;48.150;11.506;2023-03-01T16:14:14;14.50;;;11.73;;
9838;SDS011;4958;48.150;11.506;2023-03-01T16:16:41;14.47;;;11.70;;
9838;SDS011;4958;48.150;11.506;2023-03-01T16:19:07;15.17;;;12.50;;
9838;SDS011;4958;48.150;11.506;2023-03-01T16:21:35;18.40;;;13.00;;
9838;SDS011;4958;48.150;11.506;2023-03-01T16:24:01;14.73;;;13.17;;
9838;SDS011;4958;48.150;11.506;2023-03-01T16:26:29;15.20;;;12.33;;
9838;SDS011;4958;48.150;11.506;2023-03-01T16:28:56;18.13;;;12.87;;
9838;SDS011;4958;48.150;11.506;2023-03-01T16:31:23;16.37;;;12.17;;
9838;SDS011;4958;48.150;11.506;2023-03-01T16:33:52;15.10;;;12.10;;
9838;SDS011;4958;48.150;11.506;2023-03-01T16:36:20;15.00;;;11.70;;
9838;SDS011;4958;48.150;11.506;2023-03-01T16:38:48;16.93;;;12.40;;
9838;SDS011;4958;48.150;11.506;2023-03-01T16:41:16;13.70;;;12.27;;
9838;SDS011;4958;48.150;11.506;2023-03-01T16:43:45;16.10;;;12.13;;
9838;SDS011;4958;48.150;11.506;2023-03-01T16:46:13;14.97;;;11.37;;
9838;SDS011;4958;48.150;11.506;2023-03-01T16:48:40;14.00;;;11.37;;
9838;SDS011;4958;48.150;11.506;2023-03-01T16:51:07;13.90;;;11.70;;
9838;SDS011;4958;48.150;11.506;2023-03-01T16:53:34;16.20;;;12.23;;
9838;SDS011;4958;48.150;11.506;2023-03-01T16:56:03;15.20;;;12.50;;
9838;SDS011;4958;48.150;11.506;2023-03-01T16:58:31;15.37;;;11.63;;
9838;SDS011;4958;48.150;11.506;2023-03-01T17:01:02;14.53;;;12.33;;
9838;SDS011;4958;48.150;11.506;2023-03-01T17:03:30;15.40;;;11.70;;
9838;SDS011;4958;48.150;11.506;2023-03-01T17:06:00;16.30;;;11.80;;
9838;SDS011;4958;48.150;11.506;2023-03-01T17:08:28;16.93;;;12.47;;
9838;SDS011;4958;48.150;11.506;2023-03-01T17:10:54;14.00;;;12.13;;
9838;SDS011;4958;48.150;11.506;2023-03-01T17:13:20;14.63;;;12.37;;
9838;SDS011;4958;48.150;11.506;2023-03-01T17:15:49;14.50;;;12.33;;
9838;SDS011;4958;48.150;11.506;2023-03-01T17:18:17;17.03;;;12.63;;
9838;SDS011;4958;48.150;11.506;2023-03-01T17:20:43;15.40;;;12.53;;
9838;SDS011;4958;48.150;11.506;2023-03-01T17:23:10;16.53;;;12.83;;
9838;SDS011;4958;48.150;11.506;2023-03-01T17:25:40;14.43;;;11.97;;
9838;SDS011;4958;48.150;11.506;2023-03-01T17:28:09;17.93;;;12.27;;
9838;SDS011;4958;48.150;11.506;2023-03-01T17:30:35;20.90;;;12.53;;
9838;SDS011;4958;48.150;11.506;2023-03-01T17:33:02;15.23;;;12.27;;
9838;SDS011;4958;48.150;11.506;2023-03-01T17:35:29;16.73;;;12.70;;
9838;SDS011;4958;48.150;11.506;2023-03-01T17:38:01;16.33;;;12.70;;
9838;SDS011;4958;48.150;11.506;2023-03-01T17:40:27;15.97;;;12.30;;
9838;SDS011;4958;48.150;11.506;2023-03-01T17:42:53;15.23;;;11.77;;
9838;SDS011;4958;48.150;11.506;2023-03-01T17:45:21;15.80;;;12.37;;
9838;SDS011;4958;48.150;11.506;2023-03-01T17:47:47;17.30;;;11.63;;
9838;SDS011;4958;48.150;11.506;2023-03-01T17:50:14;16.03;;;11.87;;
9838;SDS011;4958;48.150;11.506;2023-03-01T17:52:42;19.17;;;14.47;;
9838;SDS011;4958;48.150;11.506;2023-03-01T17:55:09;19.57;;;15.90;;
9838;SDS011;4958;48.150;11.506;2023-03-01T17:57:36;19.60;;;15.83;;
9838;SDS011;4958;48.150;11.506;2023-03-01T18:00:04;21.53;;;17.53;;
9838;SDS011;4958;48.150;11.506;2023-03-01T18:02:33;22.53;;;17.77;;
9838;SDS011;4958;48.150;11.506;2023-03-01T18:05:00;23.63;;;18.57;;
9838;SDS011;4958;48.150;11.506;2023-03-01T18:07:51;22.23;;;18.40;;
9838;SDS011;4958;48.150;11.506;2023-03-01T18:11:08;27.47;;;19.40;;
9838;SDS011;4958;48.150;11.506;2023-03-01T18:14:08;26.33;;;21.97;;
9838;SDS011;4958;48.150;11.506;2023-03-01T18:16:38;32.27;;;24.60;;
9838;SDS011;4958;48.150;11.506;2023-03-01T18:19:26;23.10;;;19.17;;
9838;SDS011;4958;48.150;11.506;2023-03-01T18:22:10;23.63;;;19.57;;
9838;SDS011;4958;48.150;11.506;2023-03-01T18:27:35;25.10;;;19.87;;
9838;SDS011;4958;48.150;11.506;2023-03-01T18:30:05;22.03;;;19.53;;
9838;SDS011;4958;48.150;11.506;2023-03-01T18:33:33;24.13;;;19.97;;
9838;SDS011;4958;48.150;11.506;2023-03-01T18:36:04;24.73;;;19.43;;
9838;SDS011;4958;48.150;11.506;2023-03-01T18:39:08;26.30;;;20.50;;
9838;SDS011;4958;48.150;11.506;2023-03-01T18:42:10;25.20;;;20.70;;
9838;SDS011;4958;48.150;11.506;2023-03-01T18:44:38;27.73;;;20.47;;
9838;SDS011;4958;48.150;11.506;2023-03-01T18:47:34;23.37;;;19.70;;
9838;SDS011;4958;48.150;11.506;2023-03-01T18:50:31;23.40;;;19.47;;
9838;SDS011;4958;48.150;11.506;2023-03-01T18:53:39;25.53;;;20.17;;
9838;SDS011;4958;48.150;11.506;2023-03-01T18:56:25;26.27;;;19.50;;
9838;SDS011;4958;48.150;11.506;2023-03-01T18:59:25;27.90;;;20.07;;
9838;SDS011;4958;48.150;11.506;2023-03-01T19:02:23;28.00;;;19.73;;
9838;SDS011;4958;48.150;11.506;2023-03-01T19:06:27;24.30;;;20.50;;
9838;SDS011;4958;48.150;11.506;2023-03-01T19:08:21;25.03;;;19.87;;
9838;SDS011;4958;48.150;11.506;2023-03-01T19:11:12;24.50;;;19.70;;
9838;SDS011;4958;48.150;11.506;2023-03-01T19:13:54;27.40;;;19.90;;
9838;SDS011;4958;48.150;11.506;2023-03-01T19:16:34;25.73;;;20.10;;
9838;SDS011;4958;48.150;11.506;2023-03-01T19:19:40;26.17;;;21.13;;
9838;SDS011;4958;48.150;11.506;2023-03-01T19:22:34;28.90;;;22.03;;
9838;SDS011;4958;48.150;11.506;2023-03-01T19:25:13;30.43;;;23.63;;
9838;SDS011;4958;48.150;11.506;2023-03-01T19:28:10;30.53;;;23.00;;
9838;SDS011;4958;48.150;11.506;2023-03-01T19:31:37;29.83;;;22.17;;
9838;SDS011;4958;48.150;11.506;2023-03-01T19:34:57;30.00;;;22.93;;
9838;SDS011;4958;48.150;11.506;2023-03-01T19:37:46;27.90;;;21.33;;
9838;SDS011;4958;48.150;11.506;2023-03-01T19:40:50;26.53;;;22.13;;
9838;SDS011;4958;48.150;11.506;2023-03-01T20:00:13;31.37;;;24.03;;
9838;SDS011;4958;48.150;11.506;2023-03-01T20:05:59;27.20;;;20.50;;
9838;SDS011;4958;48.150;11.506;2023-03-01T20:08:47;24.60;;;17.43;;
9838;SDS011;4958;48.150;11.506;2023-03-01T20:11:37;24.23;;;17.60;;
9838;SDS011;4958;48.150;11.506;2023-03-01T20:25:41;18.80;;;13.03;;
9838;SDS011;4958;48.150;11.506;2023-03-01T20:28:33;18.47;;;13.90;;
9838;SDS011;4958;48.150;11.506;2023-03-01T20:31:34;18.10;;;12.93;;
9838;SDS011;4958;48.150;11.506;2023-03-01T20:34:41;16.30;;;12.37;;
9838;SDS011;4958;48.150;11.506;2023-03-01T20:37:31;17.50;;;11.87;;
9838;SDS011;4958;48.150;11.506;2023-03-01T20:40:24;19.37;;;12.43;;
9838;SDS011;4958;48.150;11.506;2023-03-01T20:49:35;17.47;;;12.30;;
9838;SDS011;4958;48.150;11.506;2023-03-01T20:54:41;17.33;;;11.87;;
9838;SDS011;4958;48.150;11.506;2023-03-01T20:55:30;17.77;;;13.00;;
9838;SDS011;4958;48.150;11.506;2023-03-01T21:02:08;15.20;;;11.53;;
9838;SDS011;4958;48.150;11.506;2023-03-01T21:05:13;17.73;;;12.43;;
9838;SDS011;4958;48.150;11.506;2023-03-01T21:08:17;21.90;;;14.17;;
9838;SDS011;4958;48.150;11.506;2023-03-01T21:34:30;19.27;;;12.13;;
9838;SDS011;4958;48.150;11.506;2023-03-01T21:39:45;16.80;;;12.40;;
9838;SDS011;4958;48.150;11.506;2023-03-01T21:44:27;16.53;;;12.20;;
9838;SDS011;4958;48.150;11.506;2023-03-01T21:50:39;19.30;;;12.90;;
9838;SDS011;4958;48.150;11.506;2023-03-01T21:56:51;18.13;;;12.53;;
9838;SDS011;4958;48.150;11.506;2023-03-01T21:59:35;18.30;;;12.93;;
9838;SDS011;4958;48.150;11.506;2023-03-01T22:03:03;16.67;;;13.03;;
9838;SDS011;4958;48.150;11.506;2023-03-01T22:05:39;17.10;;;13.00;;
9838;SDS011;4958;48.150;11.506;2023-03-01T22:08:54;17.53;;;12.43;;
9838;SDS011;4958;48.150;11.506;2023-03-01T22:11:56;20.10;;;13.43;;
9838;SDS011;4958;48.150;11.506;2023-03-01T22:15:06;18.00;;;12.60;;
9838;SDS011;4958;48.150;11.506;2023-03-01T22:21:41;17.37;;;13.50;;
9838;SDS011;4958;48.150;11.506;2023-03-01T22:24:44;20.23;;;13.80;;
9838;SDS011;4958;48.150;11.506;2023-03-01T22:27:50;17.57;;;13.47;;
9838;SDS011;4958;48.150;11.506;2023-03-01T22:34:20;18.87;;;13.40;;
9838;SDS011;4958;48.150;11.506;2023-03-01T22:37:08;17.67;;;12.83;;
9838;SDS011;4958;48.150;11.506;2023-03-01T22:40:16;17.13;;;13.07;;
9838;SDS011;4958;48.150;11.506;2023-03-01T22:43:27;21.27;;;13.63;;
9838;SDS011;4958;48.150;11.506;2023-03-01T22:46:28;21.60;;;14.77;;
9838;SDS011;4958;48.150;11.506;2023-03-01T22:49:34;40.00;;;27.97;;
9838;SDS011;4958;48.150;11.506;2023-03-01T22:59:05;21.43;;;15.17;;
9838;SDS011;4958;48.150;11.506;2023-03-01T23:51:31;18.03;;;13.70;;
9838;SDS011;4958;48.150;11.506;2023-03-01T23:59:58;18.03;;;12.93;;
